Time;durP1;ratioP1;P1;durP2;ratioP2;P2;SDS_P1;SDS_P2;PMS_P1;PMS_P2;Temp;Humidity;BMP_temperature;BMP_pressure;BME280_temperature;BME280_humidity;BME280_pressure;Samples;Min_cycle;Max_cycle;Signal;HPM_P1;HPM_P2
2021/12/25 00:00:55;;;;;;;;;46.50;38.50;;;;;10.39;79.83;100048.94;5084931;27;45443;-71
2021/12/25 00:03:20;;;;;;;;;29.50;27.50;;;;;10.38;78.39;100055.97;5095135;27;45462;-67
2021/12/25 00:05:52;;;;;;;;;28.50;27.50;;;;;10.44;79.59;100060.44;5089825;27;45351;-65
2021/12/25 00:08:28;;;;;;;;;27.75;25.50;;;;;10.42;78.99;100046.31;5088610;27;45418;-67
2021/12/25 00:10:56;;;;;;;;;28.50;27.00;;;;;10.45;79.83;100059.59;5095462;27;45293;-67
2021/12/25 00:13:22;;;;;;;;;31.00;29.25;;;;;10.44;79.12;100049.88;5089349;27;45424;-66
2021/12/25 00:15:49;;;;;;;;;30.75;26.75;;;;;10.42;79.56;100038.38;5083148;27;45328;-67
2021/12/25 00:18:15;;;;;;;;;32.25;28.50;;;;;10.44;79.97;100037.53;5094547;27;46983;-67
2021/12/25 00:20:40;;;;;;;;;26.25;23.50;;;;;10.46;80.03;100034.94;5088193;27;45492;-67
2021/12/25 00:23:07;;;;;;;;;29.00;22.00;;;;;10.40;79.23;100019.03;5094561;27;45397;-67
2021/12/25 00:25:41;;;;;;;;;27.00;26.00;;;;;10.43;79.68;100029.63;5094432;27;45489;-66
2021/12/25 00:36:11;;;;;;;;;29.50;25.75;;;;;10.40;79.89;100016.38;5080909;27;45525;-65
2021/12/25 00:38:37;;;;;;;;;27.75;24.25;;;;;10.38;79.95;100011.06;5083514;27;45266;-65
2021/12/25 00:41:06;;;;;;;;;28.75;22.75;;;;;10.34;79.87;100006.63;5098927;27;45659;-65
2021/12/25 00:43:32;;;;;;;;;26.25;23.00;;;;;10.30;79.24;99999.50;5098576;27;45386;-66
2021/12/25 00:46:00;;;;;;;;;23.00;21.75;;;;;10.14;78.92;99973.72;5094098;27;46831;-65
2021/12/25 00:48:25;;;;;;;;;29.25;25.25;;;;;10.33;78.58;100009.22;5094117;27;45528;-65
2021/12/25 00:50:51;;;;;;;;;28.00;25.25;;;;;10.26;78.80;100001.19;5092808;27;45465;-65
2021/12/25 00:53:16;;;;;;;;;27.75;26.50;;;;;10.10;78.89;99975.47;5087388;27;45189;-65
2021/12/25 00:55:41;;;;;;;;;33.00;24.50;;;;;10.26;78.99;100013.53;5087258;27;45824;-68
2021/12/25 00:58:07;;;;;;;;;26.75;24.25;;;;;10.10;78.34;99991.31;5098185;27;46323;-65
2021/12/25 01:00:32;;;;;;;;;25.50;24.50;;;;;10.13;78.62;99998.38;5082369;27;45160;-66
2021/12/25 01:02:58;;;;;;;;;26.00;24.25;;;;;10.08;77.91;100001.88;5097493;27;45366;-66
2021/12/25 01:05:23;;;;;;;;;25.75;22.00;;;;;10.03;78.49;100011.47;5114063;27;45390;-66
2021/12/25 01:07:49;;;;;;;;;28.75;26.00;;;;;9.99;78.92;100017.56;5100020;27;47114;-65
2021/12/25 01:10:18;;;;;;;;;27.75;27.00;;;;;9.97;78.51;100021.94;5092812;27;45303;-66
2021/12/25 01:15:34;;;;;;;;;36.00;32.75;;;;;9.84;79.31;100015.59;5079334;27;45271;-66
2021/12/25 01:20:41;;;;;;;;;27.50;27.25;;;;;9.74;78.80;100008.38;5089200;27;45286;-65
2021/12/25 01:29:09;;;;;;;;;27.00;24.00;;;;;9.63;79.07;100024.09;5087656;27;46016;-65
2021/12/25 01:31:31;;;;;;;;;29.00;25.50;;;;;9.61;79.21;100031.09;5081908;27;45540;-66
2021/12/25 01:37:00;;;;;;;;;29.25;27.25;;;;;9.39;78.90;100018.41;5095391;27;45485;-65
2021/12/25 01:47:43;;;;;;;;;33.00;30.50;;;;;9.33;78.94;100028.88;5091260;27;45290;-65
2021/12/25 01:47:56;;;;;;;;;28.00;24.50;;;;;9.14;78.34;100012.72;5078400;27;45909;-66
2021/12/25 01:50:25;;;;;;;;;41.00;33.00;;;;;9.24;79.97;100037.47;5078644;27;45862;-66
2021/12/25 01:52:51;;;;;;;;;30.50;28.75;;;;;9.08;80.25;100014.38;5086372;27;45445;-65
2021/12/25 01:55:21;;;;;;;;;32.50;29.25;;;;;9.18;80.43;100035.63;5092217;27;45341;-66
2021/12/25 01:57:47;;;;;;;;;34.00;30.50;;;;;9.21;81.09;100029.53;5087045;27;45619;-66
2021/12/25 02:00:25;;;;;;;;;30.00;27.00;;;;;9.24;81.13;100040.13;5085633;27;48397;-66
2021/12/25 02:02:51;;;;;;;;;32.00;29.50;;;;;9.29;81.24;100045.47;5086823;27;45449;-66
2021/12/25 02:05:18;;;;;;;;;31.75;27.00;;;;;9.36;80.33;100044.75;5092191;27;45358;-66
2021/12/25 02:07:43;;;;;;;;;24.75;22.75;;;;;9.34;80.41;100042.06;5086053;27;45452;-66
2021/12/25 02:10:11;;;;;;;;;18.25;17.50;;;;;9.46;80.22;100053.69;5083648;27;46130;-66
2021/12/25 02:12:36;;;;;;;;;20.50;18.75;;;;;9.45;79.94;100044.88;5084564;27;45366;-66
2021/12/25 02:15:08;;;;;;;;;16.00;13.50;;;;;9.51;80.08;100044.09;5083572;27;45276;-65
2021/12/25 02:20:27;;;;;;;;;14.75;13.25;;;;;9.66;80.81;100054.88;5086337;27;45271;-66
2021/12/25 02:22:59;;;;;;;;;18.25;13.50;;;;;9.61;80.53;100038.13;5093105;27;45398;-65
2021/12/25 02:25:26;;;;;;;;;19.50;14.50;;;;;9.70;80.18;100043.53;5082038;27;45501;-65
2021/12/25 02:27:51;;;;;;;;;19.25;15.75;;;;;9.71;80.04;100025.94;5107063;27;46866;-65
2021/12/25 02:30:17;;;;;;;;;17.00;12.00;;;;;9.80;79.70;100041.91;5081902;27;45427;-66
2021/12/25 02:32:44;;;;;;;;;13.00;13.00;;;;;9.80;80.04;100040.19;5095514;27;45250;-66
2021/12/25 02:35:10;;;;;;;;;14.25;13.00;;;;;9.93;80.23;100045.63;5082252;27;45232;-66
2021/12/25 02:37:36;;;;;;;;;12.75;12.75;;;;;9.87;80.54;100033.22;5102501;27;47544;-66
2021/12/25 02:40:02;;;;;;;;;13.75;13.75;;;;;9.93;80.16;100029.78;5094342;27;46536;-66
2021/12/25 02:42:27;;;;;;;;;16.75;13.25;;;;;9.99;80.17;100037.78;5102396;27;45448;-65
2021/12/25 02:44:52;;;;;;;;;17.50;15.50;;;;;10.00;79.63;100039.59;5081749;27;45351;-66
2021/12/25 02:47:20;;;;;;;;;14.00;11.75;;;;;10.06;79.80;100047.59;5087701;27;46143;-66
2021/12/25 02:49:51;;;;;;;;;13.50;9.75;;;;;9.98;79.48;100023.72;5081559;27;45604;-65
2021/12/25 02:52:17;;;;;;;;;17.25;12.00;;;;;10.01;79.79;100031.66;5102542;27;45470;-66
2021/12/25 02:54:43;;;;;;;;;12.00;10.75;;;;;10.12;80.30;100041.50;5083915;27;45628;-66
2021/12/25 02:57:10;;;;;;;;;11.25;8.75;;;;;10.05;79.04;100025.59;5085804;27;46861;-66
2021/12/25 02:59:35;;;;;;;;;12.00;11.50;;;;;10.09;79.70;100029.16;5094113;27;45311;-65
2021/12/25 03:02:10;;;;;;;;;14.00;11.00;;;;;10.10;80.05;100020.34;5084895;27;45612;-65
2021/12/25 03:04:41;;;;;;;;;16.75;12.75;;;;;10.16;79.22;100033.63;5092259;27;45263;-65
2021/12/25 03:07:07;;;;;;;;;12.50;11.50;;;;;10.24;79.43;100036.38;5083291;27;45454;-65
2021/12/25 03:09:33;;;;;;;;;12.50;12.50;;;;;10.18;79.69;100023.09;5097190;27;48164;-65
2021/12/25 03:11:59;;;;;;;;;15.75;12.00;;;;;10.22;79.01;100031.09;5091763;27;45280;-65
2021/12/25 03:14:35;;;;;;;;;15.50;12.00;;;;;10.21;79.86;100028.41;5096015;27;45350;-65
2021/12/25 03:17:02;;;;;;;;;10.00;10.00;;;;;10.22;79.62;100017.88;5089260;27;45230;-67
2021/12/25 03:19:32;;;;;;;;;16.75;11.00;;;;;10.20;79.44;100011.69;5095149;27;48391;-65
2021/12/25 03:21:59;;;;;;;;;16.00;11.75;;;;;10.29;79.14;100032.97;5099246;27;45683;-65
2021/12/25 03:24:26;;;;;;;;;16.25;13.50;;;;;10.32;79.97;100034.75;5099916;27;45354;-65
2021/12/25 03:26:54;;;;;;;;;15.25;13.00;;;;;10.24;79.31;100017.88;5093686;27;45480;-65
2021/12/25 03:29:20;;;;;;;;;13.25;11.25;;;;;10.28;80.06;100022.41;5087056;27;46051;-65
2021/12/25 03:31:46;;;;;;;;;17.25;14.75;;;;;10.29;79.58;100025.03;5084405;27;45741;-65
2021/12/25 03:34:11;;;;;;;;;17.00;14.75;;;;;10.36;79.74;100031.28;5101030;27;45536;-65
2021/12/25 03:36:37;;;;;;;;;18.50;14.75;;;;;10.26;78.57;100009.13;5098338;27;45452;-65
2021/12/25 03:39:03;;;;;;;;;15.00;15.00;;;;;10.38;78.98;100028.66;5080948;27;45312;-65
2021/12/25 03:41:29;;;;;;;;;18.00;14.25;;;;;10.34;79.39;100027.75;5080986;27;45332;-65
2021/12/25 03:43:54;;;;;;;;;17.25;15.00;;;;;10.33;79.70;100033.88;5091532;27;45484;-65
2021/12/25 03:46:20;;;;;;;;;17.75;15.75;;;;;10.37;79.06;100030.44;5096719;27;45419;-65
2021/12/25 03:59:14;;;;;;;;;15.50;15.00;;;;;10.35;79.12;100032.16;5074520;27;45623;-65
2021/12/25 04:04:15;;;;;;;;;21.75;18.75;;;;;10.22;78.70;100012.59;5090878;27;45338;-65
2021/12/25 04:06:51;;;;;;;;;15.50;12.00;;;;;10.35;79.61;100037.44;5083248;27;46034;-65
2021/12/25 04:09:28;;;;;;;;;14.75;13.50;;;;;10.41;79.86;100041.91;5093659;27;45280;-65
2021/12/25 04:11:56;;;;;;;;;20.00;17.25;;;;;10.45;79.84;100057.84;5083206;27;45371;-65
2021/12/25 04:14:22;;;;;;;;;21.75;20.50;;;;;10.42;79.97;100043.69;5081753;27;45338;-65
2021/12/25 04:16:49;;;;;;;;;19.25;17.50;;;;;10.40;80.07;100038.38;5082284;27;45424;-65
2021/12/25 04:19:14;;;;;;;;;15.00;12.75;;;;;10.45;79.82;100046.38;5084706;27;45428;-65
2021/12/25 04:21:48;;;;;;;;;16.00;13.25;;;;;10.40;79.80;100038.38;5093172;27;45341;-65
2021/12/25 04:24:14;;;;;;;;;19.50;18.00;;;;;10.45;79.42;100046.38;5098631;27;45357;-65
2021/12/25 04:26:42;;;;;;;;;23.00;18.50;;;;;10.47;79.33;100044.63;5091813;27;46107;-65
2021/12/25 04:42:57;;;;;;;;;16.25;14.75;;;;;10.44;79.02;100036.66;5091132;27;45447;-65
2021/12/25 05:04:49;;;;;;;;;23.00;23.00;;;;;10.43;80.08;100045.47;5086060;27;45406;-65
2021/12/25 05:07:05;;;;;;;;;28.00;24.75;;;;;10.48;79.93;100055.22;5086977;27;45350;-65
2021/12/25 05:09:31;;;;;;;;;26.50;25.00;;;;;10.42;79.41;100046.31;5089850;27;46343;-66
2021/12/25 05:11:56;;;;;;;;;26.75;22.75;;;;;10.44;80.20;100056.03;5081769;27;45226;-65
2021/12/25 05:14:22;;;;;;;;;27.25;22.75;;;;;10.32;79.96;100029.47;5092754;27;45298;-66
2021/12/25 05:16:47;;;;;;;;;25.75;23.75;;;;;10.43;79.10;100046.34;5095883;27;45286;-65
2021/12/25 05:19:13;;;;;;;;;24.25;22.75;;;;;10.45;80.43;100049.91;5086894;27;45264;-68
2021/12/25 05:21:38;;;;;;;;;26.25;23.25;;;;;10.50;79.52;100049.94;5081602;27;45483;-65
2021/12/25 05:24:05;;;;;;;;;19.00;18.50;;;;;10.51;80.05;100057.91;5088662;27;45575;-66
2021/12/25 05:26:31;;;;;;;;;23.50;20.50;;;;;10.44;79.59;100044.59;5085456;27;45752;-65
2021/12/25 05:29:01;;;;;;;;;30.00;23.75;;;;;10.44;79.39;100049.88;5103873;27;46278;-66
2021/12/25 05:31:31;;;;;;;;;26.25;22.00;;;;;10.43;80.23;100045.47;5079503;27;47042;-65
2021/12/25 05:33:58;;;;;;;;;28.75;22.50;;;;;10.44;79.00;100049.88;5095255;27;45323;-66
2021/12/25 05:36:28;;;;;;;;;25.25;22.75;;;;;10.51;80.32;100059.66;5112077;27;45298;-66
2021/12/25 05:38:58;;;;;;;;;21.50;19.00;;;;;10.51;79.36;100060.56;5090421;27;45505;-66
2021/12/25 05:41:25;;;;;;;;;22.50;20.00;;;;;10.52;79.58;100061.44;5084450;27;46356;-65
2021/12/25 05:43:51;;;;;;;;;24.50;20.75;;;;;10.49;79.70;100053.47;5093475;27;45395;-65
2021/12/25 05:46:16;;;;;;;;;24.00;20.50;;;;;10.49;78.75;100054.34;5084773;27;45303;-66
2021/12/25 05:48:41;;;;;;;;;23.75;20.50;;;;;10.34;79.12;100029.50;5097210;27;45319;-65
2021/12/25 05:51:07;;;;;;;;;28.50;20.50;;;;;10.49;79.71;100056.09;5085586;27;46381;-65
2021/12/25 05:53:33;;;;;;;;;19.00;15.00;;;;;10.54;79.43;100065.00;5097697;27;45201;-65
2021/12/25 05:55:59;;;;;;;;;18.75;14.25;;;;;10.50;79.83;100057.88;5085874;27;45229;-66
2021/12/25 05:58:24;;;;;;;;;20.75;19.75;;;;;10.52;78.84;100059.66;5092978;27;45463;-65
2021/12/25 06:00:51;;;;;;;;;20.50;20.00;;;;;10.47;78.98;100056.09;5086916;27;45311;-65
2021/12/25 06:03:16;;;;;;;;;23.00;18.50;;;;;10.52;79.79;100062.31;5091846;27;45373;-66
2021/12/25 06:05:42;;;;;;;;;29.50;25.75;;;;;10.56;80.27;100072.91;5084740;27;45382;-66
2021/12/25 06:08:07;;;;;;;;;22.50;20.00;;;;;10.41;79.63;100039.28;5091474;27;45373;-66
2021/12/25 06:10:33;;;;;;;;;21.00;18.50;;;;;10.52;80.29;100066.72;5084444;27;45550;-66
2021/12/25 06:13:00;;;;;;;;;27.50;21.00;;;;;10.41;79.80;100048.06;5088996;27;45687;-66
2021/12/25 06:15:27;;;;;;;;;21.75;16.75;;;;;10.43;79.76;100046.34;5082479;27;45434;-66
2021/12/25 06:17:54;;;;;;;;;28.75;22.25;;;;;10.42;79.39;100051.59;5090076;27;47040;-66
2021/12/25 06:20:19;;;;;;;;;26.75;20.25;;;;;10.47;79.95;100063.13;5093423;27;47514;-66
2021/12/25 06:22:45;;;;;;;;;19.75;18.50;;;;;10.42;79.38;100054.25;5089822;27;45527;-66
2021/12/25 06:25:10;;;;;;;;;21.25;16.75;;;;;10.51;80.01;100076.41;5084086;27;45310;-66
2021/12/25 06:27:36;;;;;;;;;17.00;14.50;;;;;10.51;79.82;100073.75;5092414;27;45435;-66
2021/12/25 06:30:07;;;;;;;;;19.25;18.00;;;;;10.46;79.18;100061.34;5082488;27;46461;-65
2021/12/25 06:32:32;;;;;;;;;19.75;19.75;;;;;10.47;80.15;100071.06;5085591;27;45323;-65
2021/12/25 06:34:58;;;;;;;;;23.00;21.50;;;;;10.51;79.87;100073.75;5082408;27;45286;-66
2021/12/25 06:37:24;;;;;;;;;23.50;20.00;;;;;10.48;80.17;100083.41;5087310;27;45436;-66
2021/12/25 06:39:50;;;;;;;;;25.50;19.50;;;;;10.46;79.93;100077.22;5098584;27;46203;-66
2021/12/25 06:42:15;;;;;;;;;21.00;20.50;;;;;10.47;80.08;100074.59;5092548;27;45315;-66
2021/12/25 06:44:41;;;;;;;;;23.00;18.25;;;;;10.46;80.16;100070.16;5084987;27;45399;-66
2021/12/25 06:47:06;;;;;;;;;20.00;17.50;;;;;10.46;80.67;100074.56;5089070;27;46107;-66
2021/12/25 06:49:33;;;;;;;;;19.50;17.25;;;;;10.52;80.18;100082.56;5095212;27;45386;-66
2021/12/25 06:51:59;;;;;;;;;17.50;16.00;;;;;10.49;79.22;100075.50;5086933;27;45368;-66
2021/12/25 06:54:24;;;;;;;;;22.25;17.50;;;;;10.46;80.34;100075.44;5092627;27;45299;-65
2021/12/25 06:56:50;;;;;;;;;19.50;18.75;;;;;10.49;80.33;100078.13;5085332;27;45836;-65
2021/12/25 06:59:17;;;;;;;;;19.75;19.00;;;;;10.55;80.30;100084.38;5092296;27;45296;-65
2021/12/25 07:01:42;;;;;;;;;20.00;17.75;;;;;10.51;79.79;100073.75;5085710;27;45326;-65
2021/12/25 07:04:08;;;;;;;;;21.50;19.50;;;;;10.54;80.45;100080.84;5091033;27;45368;-65
2021/12/25 07:06:35;;;;;;;;;33.00;23.75;;;;;10.52;79.85;100085.22;5086015;27;45315;-65
2021/12/25 07:09:00;;;;;;;;;21.00;20.75;;;;;10.49;79.81;100078.13;5090084;27;45302;-66
2021/12/25 07:11:26;;;;;;;;;23.00;18.75;;;;;10.47;80.30;100077.25;5083420;27;45222;-65
2021/12/25 07:13:51;;;;;;;;;26.75;24.00;;;;;10.51;79.49;100081.69;5088719;27;45422;-66
2021/12/25 07:16:17;;;;;;;;;23.00;20.50;;;;;10.47;79.86;100086.91;5097321;27;45944;-65
2021/12/25 07:18:43;;;;;;;;;27.75;20.50;;;;;10.38;79.73;100065.66;5090102;27;46389;-65
2021/12/25 07:21:09;;;;;;;;;25.00;23.75;;;;;10.50;79.76;100079.94;5082374;27;45381;-65
2021/12/25 07:23:34;;;;;;;;;22.50;21.25;;;;;10.46;80.14;100078.09;5090047;27;45271;-65
2021/12/25 07:26:00;;;;;;;;;21.50;19.50;;;;;10.48;80.03;100080.78;5080750;27;46400;-65
2021/12/25 07:28:28;;;;;;;;;20.75;17.50;;;;;10.49;80.14;100083.41;5093717;27;47621;-66
2021/12/25 07:30:56;;;;;;;;;24.25;19.75;;;;;10.44;79.76;100084.22;5081640;27;45504;-65
2021/12/25 07:33:22;;;;;;;;;22.25;18.00;;;;;10.41;79.96;100082.44;5089768;27;45479;-65
2021/12/25 07:35:47;;;;;;;;;18.00;16.00;;;;;10.34;80.05;100061.22;5096653;27;46307;-66
2021/12/25 07:38:13;;;;;;;;;21.75;20.25;;;;;10.39;80.88;100083.25;5090993;27;46509;-66
2021/12/25 07:40:39;;;;;;;;;28.25;25.75;;;;;10.33;79.75;100062.94;5089864;27;45303;-66
2021/12/25 07:43:04;;;;;;;;;21.75;20.75;;;;;10.44;80.55;100086.88;5089266;27;45288;-66
2021/12/25 07:45:30;;;;;;;;;23.25;18.50;;;;;10.39;80.54;100076.25;5090994;27;45307;-66
2021/12/25 07:47:59;;;;;;;;;33.25;31.00;;;;;10.39;81.01;100078.91;5094052;27;45968;-65
2021/12/25 07:50:27;;;;;;;;;24.00;20.33;;;;;10.41;80.32;100081.53;5089300;27;45302;-65
2021/12/25 07:52:53;;;;;;;;;17.25;16.00;;;;;10.41;80.06;100084.19;5088652;27;45499;-66
2021/12/25 07:55:18;;;;;;;;;22.25;21.00;;;;;10.36;80.25;100076.19;5087161;27;46909;-65
2021/12/25 07:57:44;;;;;;;;;25.00;22.50;;;;;10.39;80.32;100085.91;5102275;27;48216;-65
2021/12/25 08:00:11;;;;;;;;;51.00;39.75;;;;;10.38;80.51;100092.06;5088350;27;46224;-66
2021/12/25 08:02:37;;;;;;;;;54.00;43.25;;;;;10.41;80.69;100092.13;5086855;27;45611;-66
2021/12/25 08:05:03;;;;;;;;;36.00;33.75;;;;;10.44;80.51;100090.38;5099423;27;45438;-66
2021/12/25 08:07:29;;;;;;;;;23.50;21.00;;;;;10.44;80.92;100097.44;5088771;27;46381;-66
2021/12/25 08:10:02;;;;;;;;;36.25;33.50;;;;;10.25;80.93;100062.81;5085937;27;45284;-66
2021/12/25 08:12:27;;;;;;;;;24.75;21.75;;;;;10.47;79.56;100094.81;5086414;27;45245;-66
2021/12/25 08:14:53;;;;;;;;;28.00;23.75;;;;;10.48;81.31;100096.63;5093576;27;45636;-66
2021/12/25 08:17:18;;;;;;;;;19.00;19.00;;;;;10.48;80.28;100099.28;5093259;27;45237;-68
2021/12/25 08:19:43;;;;;;;;;27.75;21.75;;;;;10.46;79.89;100093.06;5083752;27;45209;-67
2021/12/25 08:22:09;;;;;;;;;21.75;19.75;;;;;10.44;79.46;100089.50;5090613;27;45325;-67
2021/12/25 08:24:34;;;;;;;;;22.25;15.25;;;;;10.51;81.00;100100.19;5084967;27;45363;-67
2021/12/25 08:27:04;;;;;;;;;25.50;21.25;;;;;10.55;80.46;100098.47;5087012;27;47231;-67
2021/12/25 08:29:31;;;;;;;;;35.50;29.25;;;;;10.56;80.28;100100.25;5086081;27;45354;-67
2021/12/25 08:31:56;;;;;;;;;19.25;17.25;;;;;10.63;79.51;100112.66;5090823;27;45761;-67
2021/12/25 08:34:22;;;;;;;;;30.50;19.50;;;;;10.52;79.96;100091.38;5086702;27;45196;-67
2021/12/25 08:36:47;;;;;;;;;20.50;20.25;;;;;10.59;79.54;100102.94;5084702;27;45414;-67
2021/12/25 08:39:13;;;;;;;;;25.50;25.50;;;;;10.62;79.26;100108.25;5097305;27;45355;-67
2021/12/25 08:41:38;;;;;;;;;25.00;21.50;;;;;10.55;79.77;100095.81;5085745;27;45285;-67
2021/12/25 08:44:30;;;;;;;;;22.75;22.75;;;;;10.66;79.37;100114.47;5090096;27;45498;-67
2021/12/25 08:46:56;;;;;;;;;22.75;20.50;;;;;10.62;79.50;100110.03;5085063;27;45316;-67
2021/12/25 08:49:24;;;;;;;;;18.00;16.75;;;;;10.68;80.00;100116.25;5096629;27;45341;-67
2021/12/25 08:51:51;;;;;;;;;26.75;19.25;;;;;10.60;78.66;100104.69;5099010;27;45369;-67
2021/12/25 08:54:17;;;;;;;;;23.50;20.75;;;;;10.66;79.64;100111.81;5090732;27;45327;-67
2021/12/25 08:56:43;;;;;;;;;25.25;21.25;;;;;10.69;79.44;100119.78;5082122;27;46220;-68
2021/12/25 08:59:09;;;;;;;;;21.50;18.75;;;;;10.69;79.45;100114.50;5089098;27;45630;-67
2021/12/25 09:01:34;;;;;;;;;22.50;20.50;;;;;10.73;80.00;100118.97;5083709;27;45466;-67
2021/12/25 09:04:00;;;;;;;;;22.75;19.75;;;;;10.62;79.08;100104.72;5088218;27;45322;-67
2021/12/25 09:06:26;;;;;;;;;21.50;20.50;;;;;10.70;78.90;100126.88;5081923;27;45359;-67
2021/12/25 09:08:52;;;;;;;;;17.00;16.75;;;;;10.65;78.45;100118.00;5090830;27;45251;-67
2021/12/25 09:11:18;;;;;;;;;25.75;20.50;;;;;10.66;79.20;100119.75;5096968;27;47026;-67
2021/12/25 09:13:43;;;;;;;;;28.25;20.25;;;;;10.70;79.36;100121.59;5101273;27;45281;-67
2021/12/25 09:16:09;;;;;;;;;25.25;20.25;;;;;10.70;79.11;100122.47;5096832;27;46448;-67
2021/12/25 09:18:34;;;;;;;;;20.75;20.75;;;;;10.70;79.66;100122.47;5099767;27;45405;-67
2021/12/25 09:20:59;;;;;;;;;21.75;19.00;;;;;10.72;78.84;100118.06;5094681;27;45421;-67
2021/12/25 09:23:25;;;;;;;;;25.75;20.25;;;;;10.70;78.98;100117.19;5099444;27;45425;-67
2021/12/25 09:25:50;;;;;;;;;23.00;19.25;;;;;10.72;78.60;100117.19;5105781;27;46043;-67
2021/12/25 09:28:16;;;;;;;;;21.75;16.75;;;;;10.79;79.09;100126.97;5099700;27;45236;-67
2021/12/25 09:30:42;;;;;;;;;27.00;22.50;;;;;10.65;78.42;100107.41;5100639;27;45585;-67
2021/12/25 09:33:08;;;;;;;;;27.50;22.25;;;;;10.82;79.51;100132.31;5103583;27;45321;-67
2021/12/25 09:35:34;;;;;;;;;32.25;24.00;;;;;10.83;78.08;100133.19;5110623;27;45290;-67
2021/12/25 09:37:59;;;;;;;;;29.00;23.25;;;;;10.83;78.54;100128.78;5105613;27;45361;-67
2021/12/25 09:40:24;;;;;;;;;22.50;22.25;;;;;10.82;79.47;100129.66;5104390;27;46564;-67
2021/12/25 09:42:50;;;;;;;;;27.00;21.50;;;;;10.86;78.96;100138.50;5103082;27;45498;-68
2021/12/25 09:45:15;;;;;;;;;21.75;21.75;;;;;10.81;79.15;100124.34;5113190;27;46611;-67
2021/12/25 09:47:42;;;;;;;;;31.50;27.75;;;;;10.87;79.83;100141.19;5102658;27;45410;-66
2021/12/25 09:50:08;;;;;;;;;27.25;24.00;;;;;10.86;78.63;100136.75;5119525;27;45428;-66
2021/12/25 09:52:34;;;;;;;;;26.00;22.50;;;;;10.96;79.01;100145.69;5097656;27;45480;-66
2021/12/25 09:54:59;;;;;;;;;14.00;14.00;;;;;10.96;79.11;100143.94;5109942;27;46421;-66
2021/12/25 09:57:24;;;;;;;;;26.00;23.00;;;;;11.00;78.97;100133.38;5100038;27;45461;-67
2021/12/25 09:59:52;;;;;;;;;22.00;20.00;;;;;11.08;78.40;100145.81;5108638;27;45212;-66
2021/12/25 10:02:18;;;;;;;;;22.50;20.25;;;;;11.06;77.91;100137.00;5103013;27;45628;-67
2021/12/25 10:05:05;;;;;;;;;22.75;18.50;;;;;11.11;78.64;100142.34;5111090;27;46979;-68
2021/12/25 10:07:31;;;;;;;;;24.50;17.25;;;;;11.08;77.81;100127.31;5094924;27;45349;-68
2021/12/25 10:10:04;;;;;;;;;22.25;20.75;;;;;11.25;78.36;100153.94;5105946;27;45310;-67
2021/12/25 10:12:40;;;;;;;;;28.00;22.50;;;;;11.27;78.25;100148.69;5098647;27;46006;-68
2021/12/25 10:15:08;;;;;;;;;21.50;20.25;;;;;11.17;77.77;100134.47;5104097;27;46499;-69
2021/12/25 10:17:34;;;;;;;;;23.00;18.00;;;;;11.24;77.58;100146.03;5096812;27;45454;-67
2021/12/25 10:20:13;;;;;;;;;21.25;16.25;;;;;11.23;77.59;100134.56;5103398;27;45511;-68
2021/12/25 10:23:01;;;;;;;;;20.00;14.50;;;;;11.29;78.20;100144.31;5083813;27;47324;-68
2021/12/25 10:25:32;;;;;;;;;18.25;15.00;;;;;11.17;77.93;100126.53;5113958;27;46318;-68
2021/12/25 10:28:06;;;;;;;;;16.50;15.75;;;;;11.22;77.70;100138.03;5093614;27;45541;-68
2021/12/25 10:30:45;;;;;;;;;21.25;17.25;;;;;11.20;77.97;100127.47;5080770;27;45260;-68
2021/12/25 10:33:50;;;;;;;;;23.25;18.75;;;;;11.29;77.64;100146.97;5092256;27;45351;-68
2021/12/25 10:36:34;;;;;;;;;17.50;14.50;;;;;11.27;77.64;100133.69;5082939;27;46619;-68
2021/12/25 10:39:24;;;;;;;;;23.00;19.50;;;;;11.28;78.25;100137.22;5092535;27;45483;-68
2021/12/25 10:41:57;;;;;;;;;20.00;17.50;;;;;11.34;77.74;100137.28;5092880;27;45263;-68
2021/12/25 10:44:25;;;;;;;;;22.00;17.25;;;;;11.38;77.99;100144.41;5093756;27;45284;-68
2021/12/25 10:46:56;;;;;;;;;21.75;20.50;;;;;11.42;77.36;100138.25;5086914;27;46371;-67
2021/12/25 10:49:24;;;;;;;;;22.50;20.50;;;;;11.38;78.04;100118.81;5097034;27;45331;-68
2021/12/25 10:51:50;;;;;;;;;17.25;15.75;;;;;11.53;76.64;100131.31;5085972;27;45540;-68
2021/12/25 10:54:17;;;;;;;;;21.50;20.25;;;;;11.53;77.29;100120.72;5099780;27;45251;-68
2021/12/25 10:56:47;;;;;;;;;22.50;19.25;;;;;11.50;76.84;100101.28;5092983;27;45458;-68
2021/12/25 10:59:17;;;;;;;;;20.50;17.50;;;;;11.62;76.02;100119.91;5088561;27;45387;-68
2021/12/25 11:01:46;;;;;;;;;20.50;17.25;;;;;11.61;76.30;100111.09;5092245;27;45433;-67
2021/12/25 11:04:26;;;;;;;;;16.00;14.00;;;;;11.59;76.30;100096.06;5087722;27;45430;-68
2021/12/25 11:06:52;;;;;;;;;15.50;14.25;;;;;11.65;76.73;100093.50;5094034;27;45425;-68
2021/12/25 11:09:17;;;;;;;;;17.50;16.00;;;;;11.78;77.12;100110.34;5089119;27;45527;-67
2021/12/25 11:11:42;;;;;;;;;16.00;16.00;;;;;11.82;76.00;100102.47;5096701;27;45465;-68
2021/12/25 11:14:12;;;;;;;;;22.00;20.00;;;;;11.82;76.83;100094.53;5088566;27;45442;-68
2021/12/25 11:16:39;;;;;;;;;21.75;17.75;;;;;11.90;76.30;100088.41;5091110;27;45457;-68
2021/12/25 11:19:16;;;;;;;;;19.25;15.50;;;;;12.01;76.31;100102.63;5093042;27;45225;-68
2021/12/25 11:21:44;;;;;;;;;19.50;15.25;;;;;12.04;76.23;100098.25;5096693;27;45173;-68
2021/12/25 11:24:20;;;;;;;;;13.25;13.25;;;;;12.00;74.92;100082.31;5098166;27;45370;-68
2021/12/25 11:26:49;;;;;;;;;18.00;16.00;;;;;12.05;75.24;100094.72;5087282;27;45326;-68
2021/12/25 11:29:18;;;;;;;;;14.75;14.75;;;;;12.04;75.89;100078.78;5091493;27;45232;-68
2021/12/25 11:31:44;;;;;;;;;15.00;12.50;;;;;12.11;74.86;100088.56;5095522;27;45495;-68
2021/12/25 11:34:10;;;;;;;;;18.25;15.00;;;;;11.90;75.61;100049.56;5091896;27;45435;-68
2021/12/25 11:36:41;;;;;;;;;19.00;15.00;;;;;12.12;75.83;100076.19;5106680;27;46426;-68
2021/12/25 11:39:07;;;;;;;;;21.75;18.50;;;;;12.20;75.13;100090.38;5088434;27;45247;-68
2021/12/25 11:41:35;;;;;;;;;18.25;14.25;;;;;12.18;75.43;100079.78;5085953;27;45350;-68
2021/12/25 11:44:05;;;;;;;;;20.75;18.25;;;;;12.22;76.01;100086.00;5093292;27;45519;-68
2021/12/25 11:46:39;;;;;;;;;15.75;13.25;;;;;12.26;75.72;100077.16;5096569;27;47040;-68
2021/12/25 11:49:09;;;;;;;;;26.25;15.50;;;;;12.29;76.01;100074.53;5088796;27;45227;-68
2021/12/25 11:51:35;;;;;;;;;16.00;13.33;;;;;12.30;74.65;100071.03;5083015;27;48140;-68
2021/12/25 11:56:38;;;;;;;;;16.25;13.25;;;;;12.27;74.62;100052.47;5082611;27;45344;-68
2021/12/25 11:59:12;;;;;;;;;17.50;15.00;;;;;12.36;74.72;100059.56;5093727;27;45611;-68
2021/12/25 12:01:38;;;;;;;;;19.25;15.25;;;;;12.45;74.33;100075.50;5089152;27;45441;-68
2021/12/25 12:04:09;;;;;;;;;20.25;18.75;;;;;12.47;74.24;100072.00;5097912;27;45371;-68
2021/12/25 12:06:43;;;;;;;;;20.00;14.50;;;;;12.47;74.86;100065.81;5093569;27;46585;-68
2021/12/25 12:09:11;;;;;;;;;17.25;16.25;;;;;12.46;74.39;100067.59;5095995;27;45466;-68
2021/12/25 12:11:40;;;;;;;;;19.75;18.00;;;;;12.48;74.28;100067.56;5089273;27;45363;-68
2021/12/25 12:14:17;;;;;;;;;18.75;18.50;;;;;12.53;73.73;100072.03;5093009;27;45416;-68
2021/12/25 12:16:54;;;;;;;;;25.00;16.00;;;;;12.36;74.59;100038.38;5101696;27;47173;-68
2021/12/25 12:19:31;;;;;;;;;21.25;17.25;;;;;12.57;74.64;100072.03;5098938;27;45449;-68
2021/12/25 12:25:59;;;;;;;;;20.25;18.00;;;;;12.52;73.12;100059.66;5073212;27;45579;-68
2021/12/25 12:28:16;;;;;;;;;18.75;18.25;;;;;12.58;73.74;100065.88;5098715;27;45489;-68
2021/12/25 12:30:46;;;;;;;;;19.50;17.50;;;;;12.57;73.04;100058.78;5102357;27;45634;-68
2021/12/25 12:33:13;;;;;;;;;19.75;18.00;;;;;12.64;73.73;100068.53;5099953;27;45483;-68
2021/12/25 12:35:41;;;;;;;;;17.75;17.75;;;;;12.44;73.86;100036.66;5111790;27;45509;-68